sensor_id;sensor_type;location;lat;lon;timestamp;pressure;altitude;pressure_sealevel;temperature;humidity
21574;BME280;10948;48.706;9.258;2023-07-09T00:00:19;98057.31;;;21.04;90.25
21574;BME280;10948;48.706;9.258;2023-07-09T00:02:44;98058.34;;;20.67;93.38
21574;BME280;10948;48.706;9.258;2023-07-09T00:05:11;98065.63;;;20.55;94.52
21574;BME280;10948;48.706;9.258;2023-07-09T00:07:37;98065.16;;;20.69;92.78
21574;BME280;10948;48.706;9.258;2023-07-09T00:10:02;98074.41;;;20.83;93.17
21574;BME280;10948;48.706;9.258;2023-07-09T00:12:27;98063.09;;;20.63;93.51
21574;BME280;10948;48.706;9.258;2023-07-09T00:14:53;98065.97;;;20.43;95.05
21574;BME280;10948;48.706;9.258;2023-07-09T00:17:26;98064.84;;;20.72;92.95
21574;BME280;10948;48.706;9.258;2023-07-09T00:19:52;98074.25;;;20.57;92.91
21574;BME280;10948;48.706;9.258;2023-07-09T00:22:18;98072.56;;;20.66;92.43
21574;BME280;10948;48.706;9.258;2023-07-09T00:24:44;98076.00;;;20.39;94.66
21574;BME280;10948;48.706;9.258;2023-07-09T00:27:13;98077.38;;;20.43;94.33
21574;BME280;10948;48.706;9.258;2023-07-09T00:29:40;98075.78;;;20.23;95.68
21574;BME280;10948;48.706;9.258;2023-07-09T00:32:10;98075.81;;;20.14;98.52
21574;BME280;10948;48.706;9.258;2023-07-09T00:34:36;98080.50;;;20.29;97.07
21574;BME280;10948;48.706;9.258;2023-07-09T00:37:01;98074.16;;;20.13;97.67
21574;BME280;10948;48.706;9.258;2023-07-09T00:39:27;98078.84;;;20.19;97.92
21574;BME280;10948;48.706;9.258;2023-07-09T00:41:52;98079.88;;;19.89;99.55
21574;BME280;10948;48.706;9.258;2023-07-09T00:49:25;98079.06;;;19.41;100.00
21574;BME280;10948;48.706;9.258;2023-07-09T00:51:51;98080.44;;;19.64;100.00
21574;BME280;10948;48.706;9.258;2023-07-09T00:54:22;98081.97;;;19.76;100.00
21574;BME280;10948;48.706;9.258;2023-07-09T00:56:55;98079.88;;;19.89;100.00
21574;BME280;10948;48.706;9.258;2023-07-09T00:59:23;98083.59;;;19.96;100.00
21574;BME280;10948;48.706;9.258;2023-07-09T01:01:50;98082.78;;;19.86;100.00
21574;BME280;10948;48.706;9.258;2023-07-09T01:04:15;98089.47;;;19.90;100.00
21574;BME280;10948;48.706;9.258;2023-07-09T01:06:48;98093.91;;;20.09;98.73
21574;BME280;10948;48.706;9.258;2023-07-09T01:09:14;98088.66;;;19.61;100.00
21574;BME280;10948;48.706;9.258;2023-07-09T01:11:39;98096.72;;;19.60;100.00
21574;BME280;10948;48.706;9.258;2023-07-09T01:14:06;98093.25;;;19.40;100.00
21574;BME280;10948;48.706;9.258;2023-07-09T01:16:34;98089.75;;;19.30;100.00
21574;BME280;10948;48.706;9.258;2023-07-09T01:19:02;98095.25;;;19.08;100.00
21574;BME280;10948;48.706;9.258;2023-07-09T01:21:29;98098.97;;;18.96;100.00
21574;BME280;10948;48.706;9.258;2023-07-09T01:23:54;98106.84;;;19.36;100.00
21574;BME280;10948;48.706;9.258;2023-07-09T01:26:21;98103.94;;;19.77;100.00
21574;BME280;10948;48.706;9.258;2023-07-09T01:28:47;98096.41;;;19.72;100.00
21574;BME280;10948;48.706;9.258;2023-07-09T01:31:13;98099.78;;;19.74;98.76
21574;BME280;10948;48.706;9.258;2023-07-09T01:33:39;98093.94;;;19.42;100.00
21574;BME280;10948;48.706;9.258;2023-07-09T01:36:07;98086.69;;;19.25;100.00
21574;BME280;10948;48.706;9.258;2023-07-09T01:38:33;98093.25;;;19.40;100.00
21574;BME280;10948;48.706;9.258;2023-07-09T01:40:59;98095.59;;;19.24;100.00
21574;BME280;10948;48.706;9.258;2023-07-09T01:43:25;98091.00;;;19.26;100.00
21574;BME280;10948;48.706;9.258;2023-07-09T01:45:50;98084.78;;;19.27;100.00
21574;BME280;10948;48.706;9.258;2023-07-09T01:48:17;98089.41;;;18.95;100.00
21574;BME280;10948;48.706;9.258;2023-07-09T01:50:42;98086.63;;;19.06;100.00
21574;BME280;10948;48.706;9.258;2023-07-09T01:53:09;98083.03;;;19.07;100.00
21574;BME280;10948;48.706;9.258;2023-07-09T01:55:35;98082.47;;;19.13;100.00
21574;BME280;10948;48.706;9.258;2023-07-09T01:58:01;98083.63;;;19.30;100.00
21574;BME280;10948;48.706;9.258;2023-07-09T02:00:30;98088.03;;;19.10;100.00
21574;BME280;10948;48.706;9.258;2023-07-09T02:02:56;98080.59;;;19.34;100.00
21574;BME280;10948;48.706;9.258;2023-07-09T02:05:23;98091.84;;;19.36;100.00
21574;BME280;10948;48.706;9.258;2023-07-09T02:07:48;98100.13;;;19.13;100.00
21574;BME280;10948;48.706;9.258;2023-07-09T02:10:14;98093.31;;;19.10;100.00
21574;BME280;10948;48.706;9.258;2023-07-09T02:12:40;98098.00;;;18.97;100.00
21574;BME280;10948;48.706;9.258;2023-07-09T02:15:05;98098.28;;;18.94;100.00
21574;BME280;10948;48.706;9.258;2023-07-09T02:17:31;98094.75;;;18.75;100.00
21574;BME280;10948;48.706;9.258;2023-07-09T02:19:56;98103.16;;;18.59;100.00
21574;BME280;10948;48.706;9.258;2023-07-09T02:22:21;98100.75;;;18.86;100.00
21574;BME280;10948;48.706;9.258;2023-07-09T02:24:46;98092.94;;;18.66;100.00
21574;BME280;10948;48.706;9.258;2023-07-09T02:27:16;98100.75;;;18.77;100.00
21574;BME280;10948;48.706;9.258;2023-07-09T02:29:41;98106.84;;;18.77;100.00
21574;BME280;10948;48.706;9.258;2023-07-09T02:32:07;98096.81;;;18.71;100.00
21574;BME280;10948;48.706;9.258;2023-07-09T02:34:32;98100.16;;;18.73;100.00
21574;BME280;10948;48.706;9.258;2023-07-09T02:36:58;98098.53;;;18.91;100.00
21574;BME280;10948;48.706;9.258;2023-07-09T02:39:23;98098.47;;;18.72;100.00
21574;BME280;10948;48.706;9.258;2023-07-09T02:41:49;98100.56;;;18.69;100.00
21574;BME280;10948;48.706;9.258;2023-07-09T02:44:14;98110.44;;;18.76;100.00
21574;BME280;10948;48.706;9.258;2023-07-09T02:46:40;98108.91;;;18.74;100.00
21574;BME280;10948;48.706;9.258;2023-07-09T02:49:06;98107.16;;;18.84;100.00
21574;BME280;10948;48.706;9.258;2023-07-09T02:51:31;98105.06;;;18.87;100.00
21574;BME280;10948;48.706;9.258;2023-07-09T02:53:57;98117.34;;;18.68;100.00
21574;BME280;10948;48.706;9.258;2023-07-09T02:56:22;98115.72;;;18.76;100.00
21574;BME280;10948;48.706;9.258;2023-07-09T02:58:48;98120.66;;;18.60;100.00
21574;BME280;10948;48.706;9.258;2023-07-09T03:01:14;98124.75;;;18.23;100.00
21574;BME280;10948;48.706;9.258;2023-07-09T03:03:39;98130.34;;;18.09;100.00
21574;BME280;10948;48.706;9.258;2023-07-09T03:06:05;98124.94;;;18.31;100.00
21574;BME280;10948;48.706;9.258;2023-07-09T03:08:30;98119.69;;;18.31;100.00
21574;BME280;10948;48.706;9.258;2023-07-09T03:10:55;98129.75;;;18.47;100.00
21574;BME280;10948;48.706;9.258;2023-07-09T03:13:21;98127.00;;;18.48;100.00
21574;BME280;10948;48.706;9.258;2023-07-09T03:15:53;98125.66;;;18.33;100.00
21574;BME280;10948;48.706;9.258;2023-07-09T03:18:19;98133.56;;;18.13;100.00
21574;BME280;10948;48.706;9.258;2023-07-09T03:20:44;98137.41;;;17.88;100.00
21574;BME280;10948;48.706;9.258;2023-07-09T03:23:09;98134.69;;;17.58;100.00
21574;BME280;10948;48.706;9.258;2023-07-09T03:25:34;98133.88;;;17.99;100.00
21574;BME280;10948;48.706;9.258;2023-07-09T03:28:05;98134.06;;;18.27;100.00
21574;BME280;10948;48.706;9.258;2023-07-09T03:30:30;98127.91;;;18.17;100.00
21574;BME280;10948;48.706;9.258;2023-07-09T03:32:55;98138.94;;;18.11;100.00
21574;BME280;10948;48.706;9.258;2023-07-09T03:35:20;98136.34;;;18.32;100.00
21574;BME280;10948;48.706;9.258;2023-07-09T03:37:45;98138.88;;;18.22;100.00
21574;BME280;10948;48.706;9.258;2023-07-09T03:40:11;98140.63;;;18.12;100.00
21574;BME280;10948;48.706;9.258;2023-07-09T03:42:36;98147.53;;;18.13;100.00
21574;BME280;10948;48.706;9.258;2023-07-09T03:45:01;98149.56;;;18.00;100.00
21574;BME280;10948;48.706;9.258;2023-07-09T03:47:27;98142.78;;;18.28;100.00
21574;BME280;10948;48.706;9.258;2023-07-09T03:49:52;98144.66;;;18.16;100.00
21574;BME280;10948;48.706;9.258;2023-07-09T03:52:17;98140.56;;;18.23;100.00
21574;BME280;10948;48.706;9.258;2023-07-09T03:54:42;98150.38;;;18.42;100.00
21574;BME280;10948;48.706;9.258;2023-07-09T03:57:07;98151.63;;;18.38;100.00
21574;BME280;10948;48.706;9.258;2023-07-09T03:59:33;98138.19;;;18.20;100.00
21574;BME280;10948;48.706;9.258;2023-07-09T04:01:58;98148.34;;;18.25;100.00
21574;BME280;10948;48.706;9.258;2023-07-09T04:04:23;98149.81;;;18.38;100.00
21574;BME280;10948;48.706;9.258;2023-07-09T04:06:48;98152.50;;;18.07;100.00
21574;BME280;10948;48.706;9.258;2023-07-09T04:09:13;98152.63;;;18.46;100.00
21574;BME280;10948;48.706;9.258;2023-07-09T04:11:39;98150.41;;;18.72;100.00
21574;BME280;10948;48.706;9.258;2023-07-09T04:14:04;98150.66;;;18.69;100.00
21574;BME280;10948;48.706;9.258;2023-07-09T04:16:30;98144.59;;;18.78;100.00
21574;BME280;10948;48.706;9.258;2023-07-09T04:18:55;98146.06;;;19.01;100.00
21574;BME280;10948;48.706;9.258;2023-07-09T04:21:20;98142.84;;;19.27;100.00
21574;BME280;10948;48.706;9.258;2023-07-09T04:23:45;98153.81;;;19.42;100.00
21574;BME280;10948;48.706;9.258;2023-07-09T04:26:14;98151.47;;;19.48;100.00
21574;BME280;10948;48.706;9.258;2023-07-09T04:28:39;98149.25;;;19.44;100.00
21574;BME280;10948;48.706;9.258;2023-07-09T04:31:04;98150.53;;;19.68;100.00
21574;BME280;10948;48.706;9.258;2023-07-09T04:33:30;98152.59;;;19.74;100.00
21574;BME280;10948;48.706;9.258;2023-07-09T04:35:55;98151.47;;;19.96;100.00
21574;BME280;10948;48.706;9.258;2023-07-09T04:38:20;98159.97;;;20.18;100.00
21574;BME280;10948;48.706;9.258;2023-07-09T04:40:46;98155.38;;;20.20;100.00
21574;BME280;10948;48.706;9.258;2023-07-09T04:43:11;98149.22;;;20.29;100.00
21574;BME280;10948;48.706;9.258;2023-07-09T04:45:37;98149.97;;;20.58;100.00
21574;BME280;10948;48.706;9.258;2023-07-09T04:48:02;98147.75;;;20.63;100.00
21574;BME280;10948;48.706;9.258;2023-07-09T04:50:27;98151.13;;;20.92;98.39
21574;BME280;10948;48.706;9.258;2023-07-09T04:52:52;98146.53;;;20.94;95.54
21574;BME280;10948;48.706;9.258;2023-07-09T04:55:18;98161.91;;;20.72;97.32
21574;BME280;10948;48.706;9.258;2023-07-09T04:57:44;98158.66;;;21.24;95.43
21574;BME280;10948;48.706;9.258;2023-07-09T05:00:09;98159.50;;;21.59;91.93
21574;BME280;10948;48.706;9.258;2023-07-09T05:02:35;98156.47;;;21.81;89.68
21574;BME280;10948;48.706;9.258;2023-07-09T05:05:00;98160.91;;;21.98;88.73
21574;BME280;10948;48.706;9.258;2023-07-09T05:07:25;98171.03;;;22.20;87.07
21574;BME280;10948;48.706;9.258;2023-07-09T05:09:50;98165.31;;;22.50;84.91
21574;BME280;10948;48.706;9.258;2023-07-09T05:12:16;98165.75;;;22.71;83.43
21574;BME280;10948;48.706;9.258;2023-07-09T05:14:41;98168.88;;;22.41;83.64
21574;BME280;10948;48.706;9.258;2023-07-09T05:17:06;98175.31;;;22.56;84.12
21574;BME280;10948;48.706;9.258;2023-07-09T05:19:32;98166.28;;;23.08;82.25
21574;BME280;10948;48.706;9.258;2023-07-09T05:21:57;98164.75;;;23.31;80.45
21574;BME280;10948;48.706;9.258;2023-07-09T05:24:22;98162.28;;;23.04;80.56
21574;BME280;10948;48.706;9.258;2023-07-09T05:26:47;98165.38;;;23.25;80.62
21574;BME280;10948;48.706;9.258;2023-07-09T05:29:13;98165.81;;;23.54;78.71
21574;BME280;10948;48.706;9.258;2023-07-09T05:31:38;98169.56;;;24.01;76.03
21574;BME280;10948;48.706;9.258;2023-07-09T05:34:03;98157.09;;;23.93;76.69
21574;BME280;10948;48.706;9.258;2023-07-09T05:36:29;98165.88;;;23.86;76.42
21574;BME280;10948;48.706;9.258;2023-07-09T05:38:55;98173.16;;;23.68;77.75
21574;BME280;10948;48.706;9.258;2023-07-09T05:41:21;98168.25;;;24.45;75.54
21574;BME280;10948;48.706;9.258;2023-07-09T05:43:46;98170.75;;;23.98;75.81
21574;BME280;10948;48.706;9.258;2023-07-09T05:46:12;98167.41;;;24.12;74.57
21574;BME280;10948;48.706;9.258;2023-07-09T05:48:37;98173.22;;;24.16;75.17
21574;BME280;10948;48.706;9.258;2023-07-09T05:51:03;98174.53;;;24.76;72.93
21574;BME280;10948;48.706;9.258;2023-07-09T05:53:28;98173.84;;;25.67;70.08
21574;BME280;10948;48.706;9.258;2023-07-09T05:55:54;98176.16;;;26.60;64.54
21574;BME280;10948;48.706;9.258;2023-07-09T05:58:19;98178.59;;;26.98;62.54
21574;BME280;10948;48.706;9.258;2023-07-09T06:00:45;98179.28;;;27.15;62.03
21574;BME280;10948;48.706;9.258;2023-07-09T06:03:10;98179.78;;;26.67;63.29
21574;BME280;10948;48.706;9.258;2023-07-09T06:05:35;98179.44;;;25.80;65.94
21574;BME280;10948;48.706;9.258;2023-07-09T06:08:01;98176.63;;;25.73;67.94
21574;BME280;10948;48.706;9.258;2023-07-09T06:10:26;98180.66;;;25.39;68.26
21574;BME280;10948;48.706;9.258;2023-07-09T06:12:51;98178.13;;;25.76;68.50
21574;BME280;10948;48.706;9.258;2023-07-09T06:15:17;98186.78;;;25.78;67.22
21574;BME280;10948;48.706;9.258;2023-07-09T06:17:43;98173.28;;;26.02;66.66
21574;BME280;10948;48.706;9.258;2023-07-09T06:20:08;98176.81;;;26.39;66.56
21574;BME280;10948;48.706;9.258;2023-07-09T06:22:34;98177.19;;;26.36;66.85
21574;BME280;10948;48.706;9.258;2023-07-09T06:24:59;98182.00;;;26.78;66.36
21574;BME280;10948;48.706;9.258;2023-07-09T06:27:25;98168.63;;;26.92;64.38
21574;BME280;10948;48.706;9.258;2023-07-09T06:29:50;98186.97;;;27.10;64.60
21574;BME280;10948;48.706;9.258;2023-07-09T06:32:15;98190.66;;;27.09;64.92
21574;BME280;10948;48.706;9.258;2023-07-09T06:34:41;98182.41;;;27.33;63.32
21574;BME280;10948;48.706;9.258;2023-07-09T06:37:06;98185.53;;;27.36;63.33
21574;BME280;10948;48.706;9.258;2023-07-09T06:39:31;98183.09;;;27.56;62.45
21574;BME280;10948;48.706;9.258;2023-07-09T06:41:57;98183.09;;;27.56;62.15
21574;BME280;10948;48.706;9.258;2023-07-09T06:44:22;98184.84;;;27.63;61.84
21574;BME280;10948;48.706;9.258;2023-07-09T06:46:47;98182.13;;;28.62;60.64
21574;BME280;10948;48.706;9.258;2023-07-09T06:49:13;98185.81;;;28.54;58.68
21574;BME280;10948;48.706;9.258;2023-07-09T06:51:38;98190.94;;;28.35;59.73
21574;BME280;10948;48.706;9.258;2023-07-09T06:54:04;98180.13;;;28.43;58.28
21574;BME280;10948;48.706;9.258;2023-07-09T06:56:30;98185.53;;;28.77;57.08
21574;BME280;10948;48.706;9.258;2023-07-09T06:58:56;98188.69;;;29.08;57.17
21574;BME280;10948;48.706;9.258;2023-07-09T07:01:21;98183.44;;;28.24;55.28
21574;BME280;10948;48.706;9.258;2023-07-09T07:03:47;98187.03;;;29.07;54.57
21574;BME280;10948;48.706;9.258;2023-07-09T07:06:12;98190.44;;;29.28;54.13
21574;BME280;10948;48.706;9.258;2023-07-09T07:08:37;98176.88;;;29.36;55.37
21574;BME280;10948;48.706;9.258;2023-07-09T07:11:03;98184.03;;;29.70;52.75
21574;BME280;10948;48.706;9.258;2023-07-09T07:13:37;98184.53;;;29.93;53.03
21574;BME280;10948;48.706;9.258;2023-07-09T07:16:07;98187.69;;;30.16;51.91
21574;BME280;10948;48.706;9.258;2023-07-09T07:18:33;98185.34;;;29.93;53.25
21574;BME280;10948;48.706;9.258;2023-07-09T07:20:59;98187.53;;;30.76;51.33
21574;BME280;10948;48.706;9.258;2023-07-09T07:23:25;98180.47;;;30.36;50.65
21574;BME280;10948;48.706;9.258;2023-07-09T07:25:50;98183.06;;;31.96;49.11
21574;BME280;10948;48.706;9.258;2023-07-09T07:28:16;98186.94;;;35.29;42.49
21574;BME280;10948;48.706;9.258;2023-07-09T07:30:42;98179.31;;;36.83;39.27
21574;BME280;10948;48.706;9.258;2023-07-09T07:33:08;98180.19;;;38.02;38.54
21574;BME280;10948;48.706;9.258;2023-07-09T07:35:33;98177.63;;;38.17;38.41
21574;BME280;10948;48.706;9.258;2023-07-09T07:37:59;98172.06;;;37.21;38.40
21574;BME280;10948;48.706;9.258;2023-07-09T07:40:24;98183.22;;;37.63;37.53
21574;BME280;10948;48.706;9.258;2023-07-09T07:42:49;98175.94;;;38.11;36.64
21574;BME280;10948;48.706;9.258;2023-07-09T07:45:15;98177.81;;;39.00;36.80
21574;BME280;10948;48.706;9.258;2023-07-09T07:47:41;98180.25;;;38.92;36.70
21574;BME280;10948;48.706;9.258;2023-07-09T07:50:07;98171.31;;;39.06;36.16
21574;BME280;10948;48.706;9.258;2023-07-09T07:52:33;98175.13;;;39.05;35.63
21574;BME280;10948;48.706;9.258;2023-07-09T07:55:05;98167.47;;;40.10;35.33
21574;BME280;10948;48.706;9.258;2023-07-09T07:57:31;98174.06;;;40.24;34.48
21574;BME280;10948;48.706;9.258;2023-07-09T07:59:57;98170.53;;;39.06;34.83
21574;BME280;10948;48.706;9.258;2023-07-09T08:02:22;98164.25;;;40.43;34.52
21574;BME280;10948;48.706;9.258;2023-07-09T08:04:48;98169.78;;;38.47;35.58
21574;BME280;10948;48.706;9.258;2023-07-09T08:07:13;98157.19;;;40.77;33.92
21574;BME280;10948;48.706;9.258;2023-07-09T08:09:38;98172.31;;;41.68;32.80
21574;BME280;10948;48.706;9.258;2023-07-09T08:12:04;98166.16;;;40.33;33.44
21574;BME280;10948;48.706;9.258;2023-07-09T08:14:38;98165.16;;;43.26;30.79
21574;BME280;10948;48.706;9.258;2023-07-09T08:17:04;98174.28;;;43.45;30.82
21574;BME280;10948;48.706;9.258;2023-07-09T08:19:30;98169.94;;;42.48;31.77
21574;BME280;10948;48.706;9.258;2023-07-09T08:21:55;98165.41;;;42.34;31.00
21574;BME280;10948;48.706;9.258;2023-07-09T08:24:20;98160.25;;;42.66;30.87
21574;BME280;10948;48.706;9.258;2023-07-09T08:26:46;98178.56;;;43.98;29.58
21574;BME280;10948;48.706;9.258;2023-07-09T08:29:12;98163.03;;;43.65;29.33
21574;BME280;10948;48.706;9.258;2023-07-09T08:31:38;98173.34;;;43.78;29.05
21574;BME280;10948;48.706;9.258;2023-07-09T08:34:04;98171.09;;;44.91;28.70
21574;BME280;10948;48.706;9.258;2023-07-09T08:36:30;98172.88;;;43.47;29.61
21574;BME280;10948;48.706;9.258;2023-07-09T08:38:56;98169.47;;;45.22;28.62
21574;BME280;10948;48.706;9.258;2023-07-09T08:49:18;98167.03;;;46.37;26.99
21574;BME280;10948;48.706;9.258;2023-07-09T08:51:45;98168.56;;;47.95;25.99
21574;BME280;10948;48.706;9.258;2023-07-09T08:54:14;98170.50;;;47.17;26.69
21574;BME280;10948;48.706;9.258;2023-07-09T08:56:40;98163.16;;;45.48;27.19
21574;BME280;10948;48.706;9.258;2023-07-09T08:59:07;98175.31;;;46.59;26.63
21574;BME280;10948;48.706;9.258;2023-07-09T09:01:34;98164.44;;;45.10;26.83
21574;BME280;10948;48.706;9.258;2023-07-09T09:06:42;98165.88;;;45.21;25.94
21574;BME280;10948;48.706;9.258;2023-07-09T09:11:40;98169.19;;;47.06;26.09
21574;BME280;10948;48.706;9.258;2023-07-09T09:14:10;98174.19;;;43.97;27.25
21574;BME280;10948;48.706;9.258;2023-07-09T09:16:39;98153.34;;;40.28;31.45
21574;BME280;10948;48.706;9.258;2023-07-09T09:19:08;98161.47;;;40.13;31.24
21574;BME280;10948;48.706;9.258;2023-07-09T09:21:40;98157.19;;;40.57;31.26
21574;BME280;10948;48.706;9.258;2023-07-09T09:24:20;98152.00;;;40.51;31.15
21574;BME280;10948;48.706;9.258;2023-07-09T09:26:48;98153.75;;;39.85;31.84
21574;BME280;10948;48.706;9.258;2023-07-09T09:29:15;98152.72;;;40.01;31.48
21574;BME280;10948;48.706;9.258;2023-07-09T09:31:40;98152.28;;;40.74;32.27
21574;BME280;10948;48.706;9.258;2023-07-09T09:34:06;98145.38;;;37.78;33.41
21574;BME280;10948;48.706;9.258;2023-07-09T09:36:41;98151.84;;;38.51;32.17
21574;BME280;10948;48.706;9.258;2023-07-09T09:39:08;98155.22;;;38.63;32.82
21574;BME280;10948;48.706;9.258;2023-07-09T09:41:34;98149.41;;;39.89;32.43
21574;BME280;10948;48.706;9.258;2023-07-09T09:44:01;98148.94;;;41.17;31.32
21574;BME280;10948;48.706;9.258;2023-07-09T09:46:27;98147.84;;;41.18;30.99
21574;BME280;10948;48.706;9.258;2023-07-09T09:48:53;98151.63;;;41.47;30.95
21574;BME280;10948;48.706;9.258;2023-07-09T09:51:19;98154.34;;;41.42;31.20
21574;BME280;10948;48.706;9.258;2023-07-09T09:53:48;98149.53;;;40.69;29.88
21574;BME280;10948;48.706;9.258;2023-07-09T09:56:17;98151.16;;;40.35;29.80
21574;BME280;10948;48.706;9.258;2023-07-09T09:58:43;98148.97;;;40.27;29.92
21574;BME280;10948;48.706;9.258;2023-07-09T10:01:14;98141.75;;;39.81;30.52
21574;BME280;10948;48.706;9.258;2023-07-09T10:03:39;98141.66;;;39.61;31.09
21574;BME280;10948;48.706;9.258;2023-07-09T10:06:12;98138.03;;;38.94;30.19
21574;BME280;10948;48.706;9.258;2023-07-09T10:11:39;98127.69;;;40.49;30.03
21574;BME280;10948;48.706;9.258;2023-07-09T10:14:00;98123.22;;;41.23;29.29
21574;BME280;10948;48.706;9.258;2023-07-09T10:16:29;98125.84;;;42.06;29.63
21574;BME280;10948;48.706;9.258;2023-07-09T10:21:51;98123.19;;;41.33;28.82
21574;BME280;10948;48.706;9.258;2023-07-09T10:27:03;98118.91;;;40.97;29.07
21574;BME280;10948;48.706;9.258;2023-07-09T10:34:39;98110.41;;;41.82;29.38
21574;BME280;10948;48.706;9.258;2023-07-09T10:39:34;98098.59;;;41.91;28.53
21574;BME280;10948;48.706;9.258;2023-07-09T10:42:01;98100.84;;;42.23;29.35
21574;BME280;10948;48.706;9.258;2023-07-09T10:44:41;98104.50;;;42.75;28.16
21574;BME280;10948;48.706;9.258;2023-07-09T10:47:52;98101.16;;;42.50;28.06
21574;BME280;10948;48.706;9.258;2023-07-09T10:49:56;98101.84;;;41.93;28.58
21574;BME280;10948;48.706;9.258;2023-07-09T10:52:28;98098.84;;;43.19;27.94
21574;BME280;10948;48.706;9.258;2023-07-09T11:00:04;98083.81;;;41.29;27.64
21574;BME280;10948;48.706;9.258;2023-07-09T11:02:32;98077.94;;;40.97;27.86
21574;BME280;10948;48.706;9.258;2023-07-09T11:05:01;98077.09;;;40.86;28.09
21574;BME280;10948;48.706;9.258;2023-07-09T11:07:32;98072.75;;;41.59;28.01
21574;BME280;10948;48.706;9.258;2023-07-09T11:09:59;98074.97;;;40.39;28.16
21574;BME280;10948;48.706;9.258;2023-07-09T11:12:39;98071.97;;;40.70;28.03
21574;BME280;10948;48.706;9.258;2023-07-09T11:15:16;98070.41;;;41.86;26.75
21574;BME280;10948;48.706;9.258;2023-07-09T11:17:44;98071.22;;;41.91;26.59
21574;BME280;10948;48.706;9.258;2023-07-09T11:20:18;98069.63;;;42.24;26.66
21574;BME280;10948;48.706;9.258;2023-07-09T11:22:50;98066.97;;;43.46;26.75
21574;BME280;10948;48.706;9.258;2023-07-09T11:25:15;98063.06;;;42.53;26.93
21574;BME280;10948;48.706;9.258;2023-07-09T11:27:53;98064.75;;;42.11;26.60
21574;BME280;10948;48.706;9.258;2023-07-09T11:30:22;98068.63;;;43.24;26.56
21574;BME280;10948;48.706;9.258;2023-07-09T11:33:01;98059.38;;;42.01;27.20
21574;BME280;10948;48.706;9.258;2023-07-09T11:35:27;98056.91;;;43.18;25.77
21574;BME280;10948;48.706;9.258;2023-07-09T11:37:54;98059.97;;;43.59;25.99
21574;BME280;10948;48.706;9.258;2023-07-09T11:40:20;98054.56;;;41.29;26.84
21574;BME280;10948;48.706;9.258;2023-07-09T11:42:53;98051.78;;;40.21;27.39
21574;BME280;10948;48.706;9.258;2023-07-09T11:45:20;98042.28;;;42.19;26.93
21574;BME280;10948;48.706;9.258;2023-07-09T11:47:51;98050.28;;;43.43;25.81
21574;BME280;10948;48.706;9.258;2023-07-09T11:50:22;98055.56;;;43.39;26.39
21574;BME280;10948;48.706;9.258;2023-07-09T11:53:34;98052.88;;;43.11;25.92
21574;BME280;10948;48.706;9.258;2023-07-09T11:55:39;98050.84;;;42.07;25.68
21574;BME280;10948;48.706;9.258;2023-07-09T11:58:07;98043.34;;;42.51;26.08
21574;BME280;10948;48.706;9.258;2023-07-09T12:00:40;98048.16;;;43.40;26.45
21574;BME280;10948;48.706;9.258;2023-07-09T12:03:06;98040.91;;;43.25;26.50
21574;BME280;10948;48.706;9.258;2023-07-09T12:05:32;98038.28;;;42.40;25.96
21574;BME280;10948;48.706;9.258;2023-07-09T12:07:57;98031.31;;;41.37;26.31
21574;BME280;10948;48.706;9.258;2023-07-09T12:10:27;98035.31;;;41.98;26.50
21574;BME280;10948;48.706;9.258;2023-07-09T12:12:53;98034.97;;;41.07;27.37
21574;BME280;10948;48.706;9.258;2023-07-09T12:15:21;98024.44;;;40.46;26.56
21574;BME280;10948;48.706;9.258;2023-07-09T12:18:00;98018.47;;;39.89;30.48
21574;BME280;10948;48.706;9.258;2023-07-09T12:20:30;98035.41;;;40.16;28.66
21574;BME280;10948;48.706;9.258;2023-07-09T12:22:57;98037.56;;;41.91;27.80
21574;BME280;10948;48.706;9.258;2023-07-09T12:25:26;98032.47;;;41.21;27.32
21574;BME280;10948;48.706;9.258;2023-07-09T12:27:52;98024.88;;;41.03;27.77
21574;BME280;10948;48.706;9.258;2023-07-09T12:30:18;98017.66;;;41.80;27.15
21574;BME280;10948;48.706;9.258;2023-07-09T12:32:44;98028.03;;;42.22;27.36
21574;BME280;10948;48.706;9.258;2023-07-09T12:35:12;98016.00;;;42.18;26.16
21574;BME280;10948;48.706;9.258;2023-07-09T12:37:38;98022.72;;;40.85;27.53
21574;BME280;10948;48.706;9.258;2023-07-09T12:40:10;98023.72;;;41.19;27.26
21574;BME280;10948;48.706;9.258;2023-07-09T12:42:37;98015.91;;;41.51;26.53
21574;BME280;10948;48.706;9.258;2023-07-09T12:45:03;98011.38;;;41.36;26.05
21574;BME280;10948;48.706;9.258;2023-07-09T12:47:29;98000.66;;;40.72;27.37
21574;BME280;10948;48.706;9.258;2023-07-09T12:50:02;97999.78;;;41.49;27.71
21574;BME280;10948;48.706;9.258;2023-07-09T12:52:28;97996.78;;;41.46;28.12
21574;BME280;10948;48.706;9.258;2023-07-09T12:54:58;97999.19;;;41.96;27.54
21574;BME280;10948;48.706;9.258;2023-07-09T12:57:24;97995.28;;;42.35;27.11
21574;BME280;10948;48.706;9.258;2023-07-09T12:59:50;97980.38;;;42.23;28.03
21574;BME280;10948;48.706;9.258;2023-07-09T13:02:26;97983.94;;;41.85;27.20
21574;BME280;10948;48.706;9.258;2023-07-09T13:04:59;97981.78;;;41.87;28.35
21574;BME280;10948;48.706;9.258;2023-07-09T13:07:29;97982.91;;;42.14;27.19
21574;BME280;10948;48.706;9.258;2023-07-09T13:09:55;97974.94;;;41.84;27.99
21574;BME280;10948;48.706;9.258;2023-07-09T13:12:31;97968.16;;;41.72;27.99
21574;BME280;10948;48.706;9.258;2023-07-09T13:14:57;97967.72;;;41.60;27.76
21574;BME280;10948;48.706;9.258;2023-07-09T13:17:22;97962.78;;;40.05;27.31
21574;BME280;10948;48.706;9.258;2023-07-09T13:19:48;97962.16;;;40.68;27.08
21574;BME280;10948;48.706;9.258;2023-07-09T13:22:15;97950.69;;;40.66;26.77
21574;BME280;10948;48.706;9.258;2023-07-09T13:24:41;97956.69;;;41.31;27.49
21574;BME280;10948;48.706;9.258;2023-07-09T13:27:11;97948.16;;;42.10;27.82
21574;BME280;10948;48.706;9.258;2023-07-09T13:29:37;97947.41;;;41.66;27.27
21574;BME280;10948;48.706;9.258;2023-07-09T13:32:08;97946.75;;;41.45;28.12
21574;BME280;10948;48.706;9.258;2023-07-09T13:34:34;97941.81;;;41.47;28.47